createdAt,value
2022-09-30T00:00:57.814Z,68.16
2022-09-30T00:01:57.828Z,60.10
2022-09-30T00:02:57.833Z,58.65
2022-09-30T00:03:57.833Z,61.55
2022-09-30T00:04:57.785Z,63.16
2022-09-30T00:05:58.277Z,41.09
2022-09-30T00:06:57.761Z,56.40
2022-09-30T00:07:57.761Z,67.35
2022-09-30T00:08:57.859Z,68.16
2022-09-30T00:09:59.261Z,40.28
2022-09-30T00:10:57.736Z,40.28
2022-09-30T00:11:57.721Z,57.85
2022-09-30T00:12:58.267Z,61.87
2022-09-30T00:13:57.723Z,69.45
2022-09-30T00:14:57.723Z,68.48
2022-09-30T00:15:57.778Z,61.55
2022-09-30T00:16:57.695Z,57.52
2022-09-30T00:17:57.682Z,66.87
2022-09-30T00:18:57.680Z,69.13
2022-09-30T00:19:57.694Z,62.04
2022-09-30T00:20:58.223Z,61.55
2022-09-30T00:21:57.651Z,60.42
2022-09-30T00:22:57.650Z,62.04
2022-09-30T00:23:57.639Z,63.65
2022-09-30T00:24:57.634Z,52.37
2022-09-30T00:25:57.640Z,63.16
2022-09-30T00:26:57.610Z,62.20
2022-09-30T00:27:57.601Z,60.59
2022-09-30T00:28:57.609Z,61.87
2022-09-30T00:31:49.196Z,56.88
2022-09-30T00:32:50.176Z,42.86
2022-09-30T00:33:50.176Z,60.10
2022-09-30T00:34:50.161Z,38.99
2022-09-30T00:35:50.164Z,55.75
2022-09-30T00:36:50.157Z,62.68
2022-09-30T00:37:50.149Z,79.44
2022-09-30T00:38:50.129Z,61.07
2022-09-30T00:39:50.122Z,42.54
2022-09-30T00:40:50.144Z,65.74
2022-09-30T00:41:50.118Z,59.46
2022-09-30T00:42:50.096Z,68.96
2022-09-30T00:43:50.102Z,60.10
2022-09-30T00:44:50.083Z,45.44
2022-09-30T00:45:50.052Z,67.51
2022-09-30T00:46:51.116Z,62.52
2022-09-30T00:47:50.066Z,45.92
2022-09-30T00:48:50.051Z,62.84
2022-09-30T00:49:50.042Z,63.00
2022-09-30T00:50:50.033Z,63.65
2022-09-30T00:51:50.020Z,63.33
2022-09-30T00:52:50.033Z,41.25
2022-09-30T00:53:50.003Z,65.10
2022-09-30T00:54:50.003Z,67.68
2022-09-30T00:55:49.992Z,65.74
2022-09-30T00:56:49.985Z,62.04
2022-09-30T00:57:49.979Z,68.96
2022-09-30T00:58:49.962Z,62.04
2022-09-30T00:59:49.955Z,62.04
2022-09-30T01:00:50.047Z,65.10
2022-09-30T01:01:49.967Z,63.00
2022-09-30T01:02:49.940Z,62.84
2022-09-30T01:03:49.922Z,63.65
2022-09-30T01:04:49.922Z,64.78
2022-09-30T01:05:49.906Z,60.59
2022-09-30T01:06:49.895Z,61.23
2022-09-30T01:07:49.907Z,48.18
2022-09-30T01:08:49.897Z,56.56
2022-09-30T01:09:49.920Z,67.84
2022-09-30T01:10:49.868Z,57.85
2022-09-30T01:11:49.857Z,58.33
2022-09-30T01:12:49.860Z,66.87
2022-09-30T01:13:49.852Z,64.61
2022-09-30T01:14:49.848Z,60.59
2022-09-30T01:15:49.898Z,57.52
2022-09-30T01:16:49.823Z,55.59
2022-09-30T01:17:49.819Z,62.52
2022-09-30T01:18:49.808Z,62.52
2022-09-30T01:19:49.806Z,65.74
2022-09-30T01:20:49.790Z,60.75
2022-09-30T01:21:49.795Z,58.65
2022-09-30T01:22:49.778Z,67.35
2022-09-30T01:23:49.771Z,61.23
2022-09-30T01:24:49.774Z,59.30
2022-09-30T01:25:49.751Z,71.22
2022-09-30T01:26:49.747Z,65.42
2022-09-30T01:27:49.738Z,52.37
2022-09-30T01:28:49.733Z,68.96
2022-09-30T01:29:49.727Z,71.22
2022-09-30T01:30:49.715Z,45.60
2022-09-30T01:31:49.766Z,68.64
2022-09-30T01:32:49.696Z,69.13
2022-09-30T01:33:49.699Z,60.42
2022-09-30T01:34:49.686Z,65.58
2022-09-30T01:35:49.669Z,59.62
2022-09-30T01:36:49.674Z,50.60
2022-09-30T01:37:49.656Z,61.71
2022-09-30T01:38:49.651Z,59.30
2022-09-30T01:39:49.639Z,64.29
2022-09-30T01:40:49.649Z,67.84
2022-09-30T01:41:49.620Z,65.42
2022-09-30T01:42:49.613Z,68.16
2022-09-30T01:43:49.621Z,62.68
2022-09-30T01:44:49.597Z,58.97
2022-09-30T01:45:49.592Z,49.15
2022-09-30T01:46:49.631Z,40.93
2022-09-30T01:47:49.577Z,60.42
2022-09-30T01:48:49.579Z,60.10
2022-09-30T01:49:49.558Z,61.87
2022-09-30T01:50:49.566Z,62.68
2022-09-30T01:51:49.536Z,68.64
2022-09-30T01:52:49.558Z,58.81
2022-09-30T01:53:49.516Z,59.94
2022-09-30T01:54:49.522Z,61.07
2022-09-30T01:55:49.509Z,62.68
2022-09-30T01:56:49.500Z,62.68
2022-09-30T01:57:49.488Z,62.52
2022-09-30T01:58:49.493Z,61.39
2022-09-30T01:59:49.473Z,71.54
2022-09-30T02:00:49.593Z,66.87
2022-09-30T02:01:49.486Z,71.22
2022-09-30T02:02:49.463Z,67.68
2022-09-30T02:03:49.450Z,62.04
2022-09-30T02:04:49.437Z,59.94
2022-09-30T02:05:50.046Z,58.65
2022-09-30T02:06:50.422Z,57.36
2022-09-30T02:07:49.426Z,63.65
2022-09-30T02:08:49.411Z,62.20
2022-09-30T02:09:49.494Z,59.30
2022-09-30T02:10:49.399Z,59.62
2022-09-30T02:11:49.385Z,63.65
2022-09-30T02:12:49.372Z,53.17
2022-09-30T02:13:49.366Z,64.13
2022-09-30T02:14:49.368Z,59.78
2022-09-30T02:15:49.385Z,57.69
2022-09-30T02:16:49.439Z,63.00
2022-09-30T02:17:49.342Z,55.75
2022-09-30T02:18:49.337Z,62.04
2022-09-30T02:19:49.324Z,60.10
2022-09-30T02:20:49.320Z,59.94
2022-09-30T02:21:49.319Z,52.37
2022-09-30T02:22:49.298Z,61.55
2022-09-30T02:23:49.289Z,62.36
2022-09-30T02:24:49.292Z,61.07
2022-09-30T02:25:49.317Z,59.62
2022-09-30T02:26:49.275Z,60.75
2022-09-30T02:27:49.262Z,63.16
2022-09-30T02:28:49.251Z,56.56
2022-09-30T02:29:49.254Z,60.10
2022-09-30T02:30:49.230Z,65.10
2022-09-30T02:31:49.276Z,62.36
2022-09-30T02:32:49.218Z,63.81
2022-09-30T02:33:49.209Z,57.69
2022-09-30T02:34:49.204Z,58.33
2022-09-30T02:35:49.195Z,63.16
2022-09-30T02:36:49.189Z,66.87
2022-09-30T02:37:49.170Z,63.81
2022-09-30T02:38:49.165Z,58.97
2022-09-30T02:39:49.175Z,63.81
2022-09-30T02:40:49.158Z,67.51
2022-09-30T02:41:49.186Z,46.41
2022-09-30T02:42:49.144Z,61.71
2022-09-30T02:43:49.135Z,60.10
2022-09-30T02:44:49.130Z,59.14
2022-09-30T02:45:49.112Z,47.37
2022-09-30T02:46:49.192Z,58.49
2022-09-30T02:47:49.099Z,66.23
2022-09-30T02:48:49.099Z,60.59
2022-09-30T02:49:49.081Z,62.20
2022-09-30T02:50:49.081Z,59.94
2022-09-30T02:51:49.075Z,61.23
2022-09-30T02:52:49.056Z,63.00
2022-09-30T02:53:49.055Z,68.32
2022-09-30T02:54:49.039Z,63.16
2022-09-30T02:55:49.023Z,70.90
2022-09-30T02:56:50.034Z,61.87
2022-09-30T02:57:49.019Z,62.68
2022-09-30T02:58:49.007Z,64.45
2022-09-30T02:59:49.009Z,61.87
2022-09-30T03:00:49.090Z,62.20
2022-09-30T03:01:49.043Z,59.14
2022-09-30T03:02:48.983Z,61.55
2022-09-30T03:03:48.975Z,63.49
2022-09-30T03:04:48.963Z,70.74
2022-09-30T03:05:48.953Z,73.48
2022-09-30T03:06:48.943Z,49.79
2022-09-30T03:07:48.950Z,63.33
2022-09-30T03:08:48.930Z,67.51
2022-09-30T03:09:48.991Z,74.60
2022-09-30T03:10:48.919Z,64.61
2022-09-30T03:11:48.905Z,60.26
2022-09-30T03:12:48.915Z,62.20
2022-09-30T03:13:48.890Z,73.32
2022-09-30T03:14:48.877Z,77.34
2022-09-30T03:15:48.915Z,62.68
2022-09-30T03:16:48.860Z,70.42
2022-09-30T03:17:48.865Z,67.51
2022-09-30T03:18:48.859Z,69.13
2022-09-30T03:19:48.850Z,74.77
2022-09-30T03:20:48.834Z,64.45
2022-09-30T03:21:48.842Z,65.74
2022-09-30T03:22:48.826Z,66.39
2022-09-30T03:23:48.805Z,63.00
2022-09-30T03:24:48.813Z,65.90
2022-09-30T03:25:48.796Z,67.35
2022-09-30T03:26:48.792Z,65.74
2022-09-30T03:27:48.782Z,70.09
2022-09-30T03:28:48.770Z,65.90
2022-09-30T03:29:48.761Z,71.38
2022-09-30T03:30:48.756Z,67.68
2022-09-30T03:31:48.801Z,75.41
2022-09-30T03:32:48.738Z,66.39
2022-09-30T03:33:48.738Z,80.24
2022-09-30T03:34:48.729Z,72.99
2022-09-30T03:35:48.725Z,69.13
2022-09-30T03:36:48.706Z,70.58
2022-09-30T03:37:48.699Z,71.54
2022-09-30T03:38:48.698Z,68.32
2022-09-30T03:39:48.684Z,71.87
2022-09-30T03:40:48.676Z,71.06
2022-09-30T03:41:48.669Z,68.96
2022-09-30T03:42:48.669Z,66.39
2022-09-30T03:43:48.660Z,67.84
2022-09-30T03:44:48.641Z,65.90
2022-09-30T03:45:48.655Z,66.39
2022-09-30T03:46:48.652Z,66.87
2022-09-30T03:47:48.647Z,67.84
2022-09-30T03:48:48.613Z,69.13
2022-09-30T03:49:48.601Z,68.80
2022-09-30T03:50:48.596Z,70.42
2022-09-30T03:51:50.940Z,69.45
2022-09-30T03:52:49.648Z,66.87
2022-09-30T03:53:48.569Z,64.13
2022-09-30T03:54:49.073Z,69.77
2022-09-30T03:55:48.559Z,64.45
2022-09-30T03:56:48.549Z,70.58
2022-09-30T03:57:48.537Z,68.16
2022-09-30T03:58:48.535Z,65.10
2022-09-30T03:59:48.526Z,66.87
2022-09-30T04:00:48.596Z,71.70
2022-09-30T04:01:48.572Z,71.06
2022-09-30T04:02:48.497Z,73.15
2022-09-30T04:03:48.485Z,76.54
2022-09-30T04:04:48.487Z,65.74
2022-09-30T04:05:48.476Z,68.96
2022-09-30T04:06:48.462Z,70.42
2022-09-30T04:07:48.453Z,72.03
2022-09-30T04:08:48.486Z,70.25
2022-09-30T04:09:48.610Z,68.32
2022-09-30T04:10:48.441Z,70.74
2022-09-30T04:11:48.434Z,64.61
2022-09-30T04:12:48.427Z,70.42
2022-09-30T04:13:48.426Z,72.03
2022-09-30T04:14:48.397Z,65.10
2022-09-30T04:15:48.393Z,62.84
2022-09-30T04:16:51.894Z,68.96
2022-09-30T04:17:50.375Z,72.03
2022-09-30T04:18:48.373Z,76.05
2022-09-30T04:19:48.360Z,76.05
2022-09-30T04:20:48.359Z,69.93
2022-09-30T04:21:48.356Z,73.48
2022-09-30T04:22:48.338Z,67.68
2022-09-30T04:23:48.341Z,70.90
2022-09-30T04:24:48.327Z,68.96
2022-09-30T04:25:48.356Z,69.93
2022-09-30T04:26:48.307Z,72.03
2022-09-30T04:27:48.318Z,70.42
2022-09-30T04:28:48.289Z,69.77
2022-09-30T04:29:48.278Z,67.68
2022-09-30T04:30:48.287Z,72.03
2022-09-30T04:31:48.322Z,72.03
2022-09-30T04:32:48.264Z,69.13
2022-09-30T04:33:48.264Z,71.22
2022-09-30T04:34:48.239Z,72.35
2022-09-30T04:35:48.227Z,71.54
2022-09-30T04:36:48.221Z,70.90
2022-09-30T04:37:48.213Z,70.09
2022-09-30T04:38:48.209Z,68.80
2022-09-30T04:39:48.195Z,69.45
2022-09-30T04:40:48.192Z,69.77
2022-09-30T04:41:48.179Z,69.45
2022-09-30T04:42:48.289Z,68.00
2022-09-30T04:43:48.169Z,69.93
2022-09-30T04:44:48.175Z,65.42
2022-09-30T04:45:48.228Z,70.42
2022-09-30T04:46:48.139Z,67.68
2022-09-30T04:47:48.134Z,67.51
2022-09-30T04:48:48.134Z,70.74
2022-09-30T04:49:48.119Z,70.42
2022-09-30T04:50:48.115Z,70.90
2022-09-30T04:51:48.115Z,72.51
2022-09-30T04:52:48.098Z,70.90
2022-09-30T04:53:48.096Z,74.93
2022-09-30T04:54:48.088Z,71.54
2022-09-30T04:55:48.080Z,72.35
2022-09-30T04:56:48.078Z,69.29
2022-09-30T04:57:49.011Z,68.64
2022-09-30T04:58:48.052Z,70.25
2022-09-30T04:59:48.050Z,70.25
2022-09-30T05:00:48.090Z,69.29
2022-09-30T05:01:48.108Z,70.90
2022-09-30T05:02:48.020Z,86.21
2022-09-30T05:03:48.591Z,78.31
2022-09-30T05:04:48.009Z,72.83
2022-09-30T05:05:48.007Z,73.32
2022-09-30T05:06:47.995Z,72.03
2022-09-30T05:07:47.978Z,71.22
2022-09-30T05:08:47.984Z,72.51
2022-09-30T05:09:47.984Z,72.83
2022-09-30T05:10:47.951Z,70.90
2022-09-30T05:11:47.957Z,68.48
2022-09-30T05:12:47.952Z,69.45
2022-09-30T05:13:47.944Z,73.80
2022-09-30T05:14:47.925Z,70.42
2022-09-30T05:15:47.958Z,72.51
2022-09-30T05:16:47.930Z,68.00
2022-09-30T05:17:47.908Z,70.74
2022-09-30T05:18:47.896Z,69.29
2022-09-30T05:21:54.173Z,74.93
2022-09-30T05:22:54.160Z,72.99
2022-09-30T05:23:54.160Z,72.99
2022-09-30T05:24:54.153Z,72.03
2022-09-30T05:25:54.141Z,72.99
2022-09-30T05:26:54.149Z,73.15
2022-09-30T05:27:54.126Z,73.96
2022-09-30T05:28:54.126Z,71.06
2022-09-30T05:29:54.104Z,73.80
2022-09-30T05:30:54.096Z,75.73
2022-09-30T05:31:54.145Z,72.19
2022-09-30T05:32:54.080Z,71.22
2022-09-30T05:33:57.884Z,72.83
2022-09-30T05:34:54.061Z,72.03
2022-09-30T05:35:54.059Z,72.51
2022-09-30T05:36:54.055Z,72.51
2022-09-30T05:37:55.029Z,73.15
2022-09-30T05:38:54.043Z,79.44
2022-09-30T05:39:54.033Z,72.03
2022-09-30T05:40:54.019Z,72.67
2022-09-30T05:41:54.014Z,73.80
2022-09-30T05:42:54.000Z,73.80
2022-09-30T05:43:54.011Z,73.80
2022-09-30T05:44:53.990Z,71.38
2022-09-30T05:45:53.985Z,72.51
2022-09-30T05:46:54.055Z,73.80
2022-09-30T05:47:53.962Z,73.32
2022-09-30T05:48:53.961Z,74.44
2022-09-30T05:49:56.178Z,73.15
2022-09-30T05:50:53.938Z,78.79
2022-09-30T05:51:53.929Z,74.12
2022-09-30T05:52:53.922Z,72.67
2022-09-30T05:53:53.926Z,89.43
2022-09-30T05:54:53.916Z,76.86
2022-09-30T05:55:53.899Z,74.28
2022-09-30T05:56:53.897Z,74.44
2022-09-30T05:57:53.893Z,75.09
2022-09-30T05:58:53.879Z,72.51
2022-09-30T05:59:53.889Z,77.67
2022-09-30T06:00:53.868Z,72.83
2022-09-30T06:01:55.055Z,75.57
2022-09-30T06:02:55.064Z,78.47
2022-09-30T06:03:54.941Z,77.99
2022-09-30T06:04:54.924Z,75.57
2022-09-30T06:05:54.931Z,73.32
2022-09-30T06:06:54.905Z,71.38
2022-09-30T06:07:54.932Z,71.38
2022-09-30T06:08:54.975Z,68.96
2022-09-30T06:09:54.911Z,70.09
2022-09-30T06:10:54.887Z,72.83
2022-09-30T06:11:54.879Z,78.31
2022-09-30T06:12:54.943Z,69.29
2022-09-30T06:13:54.849Z,71.54
2022-09-30T06:14:54.847Z,69.13
2022-09-30T06:15:54.850Z,68.96
2022-09-30T06:16:54.903Z,70.42
2022-09-30T06:17:55.626Z,76.05
2022-09-30T06:18:55.625Z,72.83
2022-09-30T06:19:54.805Z,73.96
2022-09-30T06:20:54.821Z,74.12
2022-09-30T06:21:54.783Z,72.35
2022-09-30T06:22:54.794Z,72.51
2022-09-30T06:23:54.768Z,71.22
2022-09-30T06:24:55.415Z,72.83
2022-09-30T06:25:55.768Z,70.74
2022-09-30T06:26:54.757Z,71.70
2022-09-30T06:27:54.745Z,73.80
2022-09-30T06:28:54.734Z,74.60
2022-09-30T06:29:54.723Z,69.77
2022-09-30T06:30:54.731Z,72.83
2022-09-30T06:31:54.853Z,72.99
2022-09-30T06:32:54.704Z,70.74
2022-09-30T06:33:54.688Z,73.32
2022-09-30T06:34:54.701Z,71.54
2022-09-30T06:35:54.693Z,72.67
2022-09-30T06:36:54.671Z,70.42
2022-09-30T06:37:54.677Z,70.09
2022-09-30T06:38:54.646Z,71.06
2022-09-30T06:39:54.660Z,73.80
2022-09-30T06:40:54.643Z,68.48
2022-09-30T06:41:54.622Z,73.32
2022-09-30T06:42:54.622Z,75.73
2022-09-30T06:43:58.398Z,72.51
2022-09-30T06:44:54.598Z,70.74
2022-09-30T06:46:04.319Z,75.25
2022-09-30T06:46:56.693Z,70.90
2022-09-30T06:48:00.050Z,68.96
2022-09-30T06:49:08.527Z,72.51
2022-09-30T06:49:56.570Z,70.42
2022-09-30T06:51:01.584Z,73.48
2022-09-30T06:51:56.546Z,73.15
2022-09-30T06:52:54.557Z,70.42
2022-09-30T06:53:54.530Z,74.60
2022-09-30T06:54:54.526Z,72.67
2022-09-30T06:55:54.525Z,73.48
2022-09-30T06:56:54.495Z,73.80
2022-09-30T06:57:54.493Z,71.38
2022-09-30T06:58:54.535Z,71.38
2022-09-30T06:59:54.511Z,71.06
2022-09-30T07:00:55.096Z,73.32
2022-09-30T07:01:54.526Z,71.38
2022-09-30T07:02:54.454Z,74.12
2022-09-30T07:03:54.821Z,75.73
2022-09-30T07:04:55.433Z,74.28
2022-09-30T07:05:54.438Z,72.99
2022-09-30T07:06:54.432Z,70.42
2022-09-30T07:07:54.418Z,71.70
2022-09-30T07:08:56.154Z,72.51
2022-09-30T07:09:57.558Z,69.93
2022-09-30T07:10:56.380Z,71.38
2022-09-30T07:11:54.374Z,68.64
2022-09-30T07:12:54.365Z,69.13
2022-09-30T07:13:54.409Z,69.93
2022-09-30T07:14:56.076Z,69.61
2022-09-30T07:15:54.349Z,71.22
2022-09-30T07:16:54.443Z,69.13
2022-09-30T07:17:55.276Z,72.03
2022-09-30T07:18:54.336Z,76.54
2022-09-30T07:19:54.441Z,76.22
2022-09-30T07:20:54.297Z,72.83
2022-09-30T07:21:54.306Z,72.19
2022-09-30T07:22:54.286Z,73.48
2022-09-30T07:23:54.918Z,69.29
2022-09-30T07:24:54.289Z,75.57
2022-09-30T07:25:54.284Z,71.22
2022-09-30T07:26:54.260Z,72.99
2022-09-30T07:27:54.283Z,71.70
2022-09-30T07:28:54.239Z,78.63
2022-09-30T07:30:08.874Z,70.90
2022-09-30T07:31:08.095Z,69.29
2022-09-30T07:31:56.284Z,71.22
2022-09-30T07:32:54.221Z,75.41
2022-09-30T07:33:54.197Z,89.59
2022-09-30T07:34:54.181Z,75.25
2022-09-30T07:35:54.180Z,75.09
2022-09-30T07:36:54.179Z,71.38
2022-09-30T07:37:54.169Z,69.93
2022-09-30T07:38:54.167Z,69.13
2022-09-30T07:39:54.156Z,69.61
2022-09-30T07:40:54.155Z,70.58
2022-09-30T07:41:54.165Z,69.93
2022-09-30T07:42:54.121Z,70.58
2022-09-30T07:43:54.108Z,84.76
2022-09-30T07:44:55.121Z,69.45
2022-09-30T07:45:54.202Z,70.09
2022-09-30T07:46:54.101Z,74.77
2022-09-30T07:47:54.172Z,69.77
2022-09-30T07:48:54.077Z,69.93
2022-09-30T07:49:54.061Z,70.25
2022-09-30T07:50:54.075Z,72.19
2022-09-30T07:51:54.103Z,72.51
2022-09-30T07:52:54.048Z,70.58
2022-09-30T07:53:54.034Z,69.77
2022-09-30T07:54:54.018Z,74.60
2022-09-30T07:55:54.026Z,74.28
2022-09-30T07:57:10.824Z,68.16
2022-09-30T07:57:56.017Z,73.96
2022-09-30T07:58:54.018Z,79.92
2022-09-30T07:59:53.984Z,74.44
2022-09-30T08:00:54.031Z,72.51
2022-09-30T08:01:53.999Z,70.90
2022-09-30T08:02:53.967Z,70.25
2022-09-30T08:03:53.960Z,73.80
2022-09-30T08:04:53.950Z,70.42
2022-09-30T08:05:53.948Z,69.45
2022-09-30T08:06:54.641Z,69.13
2022-09-30T08:07:53.925Z,70.90
2022-09-30T08:08:53.908Z,69.93
2022-09-30T08:09:53.960Z,69.45
2022-09-30T08:10:53.907Z,73.15
2022-09-30T08:11:54.061Z,70.58
2022-09-30T08:12:56.128Z,69.13
2022-09-30T08:13:54.866Z,72.35
2022-09-30T08:14:53.865Z,69.29
2022-09-30T08:15:53.861Z,87.66
2022-09-30T08:16:53.941Z,69.29
2022-09-30T08:17:53.847Z,71.22
2022-09-30T08:18:53.833Z,70.90
2022-09-30T08:19:53.830Z,70.90
2022-09-30T08:20:53.812Z,70.58
2022-09-30T08:21:53.882Z,71.87
2022-09-30T08:22:54.686Z,75.09
2022-09-30T08:23:53.795Z,73.48
2022-09-30T08:24:53.793Z,70.58
2022-09-30T08:25:53.782Z,74.93
2022-09-30T08:26:53.895Z,69.61
2022-09-30T08:27:53.765Z,75.09
2022-09-30T08:28:53.746Z,73.80
2022-09-30T08:29:56.093Z,70.58
2022-09-30T08:30:54.731Z,72.83
2022-09-30T08:31:53.765Z,70.90
2022-09-30T08:32:53.715Z,70.09
2022-09-30T08:33:53.710Z,72.03
2022-09-30T08:34:53.717Z,72.67
2022-09-30T08:35:53.695Z,69.77
2022-09-30T08:36:57.816Z,71.87
2022-09-30T08:37:55.710Z,71.22
2022-09-30T08:38:53.913Z,72.03
2022-09-30T08:39:53.679Z,73.64
2022-09-30T08:40:53.661Z,69.45
2022-09-30T08:41:53.654Z,74.44
2022-09-30T08:42:56.860Z,76.05
2022-09-30T08:43:54.634Z,68.64
2022-09-30T08:44:53.617Z,87.33
2022-09-30T08:45:53.683Z,70.42
2022-09-30T08:46:57.535Z,69.77
2022-09-30T08:47:54.600Z,69.13
2022-09-30T08:48:53.587Z,69.77
2022-09-30T08:49:53.581Z,72.03
2022-09-30T08:50:53.595Z,71.38
2022-09-30T08:51:53.605Z,69.77
2022-09-30T08:52:53.548Z,72.51
2022-09-30T08:53:53.542Z,72.35
2022-09-30T08:54:53.532Z,70.58
2022-09-30T08:55:53.530Z,70.09
2022-09-30T08:56:53.551Z,70.74
2022-09-30T08:57:53.526Z,71.06
2022-09-30T08:58:53.499Z,73.32
2022-09-30T08:59:53.492Z,69.61
2022-09-30T09:00:53.497Z,72.51
2022-09-30T09:01:56.118Z,74.28
2022-09-30T09:02:53.492Z,75.25
2022-09-30T09:03:54.152Z,78.47
2022-09-30T09:04:53.455Z,69.29
2022-09-30T09:05:53.451Z,68.80
2022-09-30T09:06:53.441Z,69.45
2022-09-30T09:07:53.444Z,68.96
2022-09-30T09:08:53.440Z,71.87
2022-09-30T09:09:53.432Z,73.48
2022-09-30T09:10:53.428Z,69.29
2022-09-30T09:11:53.406Z,69.45
2022-09-30T09:12:53.469Z,77.02
2022-09-30T09:13:53.394Z,73.32
2022-09-30T09:14:53.413Z,71.22
2022-09-30T09:15:53.369Z,71.54
2022-09-30T09:16:53.410Z,73.96
2022-09-30T09:18:18.204Z,72.35
2022-09-30T09:18:55.359Z,71.54
2022-09-30T09:19:53.340Z,74.93
2022-09-30T09:20:53.361Z,70.90
2022-09-30T09:21:53.320Z,71.06
2022-09-30T09:22:53.318Z,69.61
2022-09-30T09:23:53.318Z,72.19
2022-09-30T09:24:53.296Z,73.15
2022-09-30T09:25:53.299Z,69.93
2022-09-30T09:26:53.297Z,72.51
2022-09-30T09:27:53.325Z,69.93
2022-09-30T09:28:53.879Z,72.51
2022-09-30T09:29:54.164Z,73.48
2022-09-30T09:30:53.242Z,70.58
2022-09-30T09:31:53.326Z,68.48
2022-09-30T09:32:53.227Z,71.38
2022-09-30T09:33:53.235Z,73.15
2022-09-30T09:34:53.211Z,72.67
2022-09-30T09:35:53.202Z,71.06
2022-09-30T09:36:53.247Z,69.77
2022-09-30T09:37:54.083Z,73.80
2022-09-30T09:38:53.180Z,75.25
2022-09-30T09:39:53.201Z,69.61
2022-09-30T09:40:53.164Z,69.13
2022-09-30T09:41:54.707Z,70.74
2022-09-30T09:42:53.148Z,70.09
2022-09-30T09:43:53.139Z,77.02
2022-09-30T09:44:53.155Z,75.09
2022-09-30T09:45:53.198Z,69.77
2022-09-30T09:48:39.993Z,72.19
2022-09-30T09:49:41.655Z,71.70
2022-09-30T09:50:41.056Z,68.80
2022-09-30T09:51:41.051Z,72.83
2022-09-30T09:52:41.049Z,72.67
2022-09-30T09:53:41.037Z,69.93
2022-09-30T09:54:41.070Z,69.13
2022-09-30T09:55:41.038Z,70.58
2022-09-30T09:56:41.014Z,71.38
2022-09-30T09:57:41.924Z,70.74
2022-09-30T09:58:41.037Z,71.70
2022-09-30T09:59:41.056Z,70.09
2022-09-30T10:00:40.980Z,69.13
2022-09-30T10:01:41.006Z,71.22
2022-09-30T10:02:41.019Z,71.22
2022-09-30T10:03:40.951Z,72.19
2022-09-30T10:04:41.955Z,69.93
2022-09-30T10:05:40.948Z,71.54
2022-09-30T10:06:41.947Z,72.03
2022-09-30T10:07:40.930Z,74.12
2022-09-30T10:08:40.923Z,70.42
2022-09-30T10:09:40.912Z,72.51
2022-09-30T10:10:40.912Z,71.22
2022-09-30T10:11:43.436Z,72.19
2022-09-30T10:12:41.869Z,71.06
2022-09-30T10:13:40.887Z,69.77
2022-09-30T10:14:40.896Z,69.61
2022-09-30T10:15:40.898Z,70.90
2022-09-30T10:16:42.873Z,73.96
2022-09-30T10:17:40.990Z,69.45
2022-09-30T10:18:40.845Z,77.50
2022-09-30T10:19:41.836Z,73.32
2022-09-30T10:20:40.857Z,74.77
2022-09-30T10:21:40.822Z,71.38
2022-09-30T10:22:40.808Z,72.19
2022-09-30T10:23:40.826Z,69.45
2022-09-30T10:24:40.833Z,69.93
2022-09-30T10:27:47.121Z,74.44
2022-09-30T10:28:47.077Z,74.77
2022-09-30T10:29:47.067Z,75.09
2022-09-30T10:30:47.065Z,73.15
2022-09-30T10:31:47.109Z,70.25
2022-09-30T10:32:48.148Z,70.58
2022-09-30T10:33:49.143Z,70.74
2022-09-30T10:34:48.137Z,71.54
2022-09-30T10:35:48.108Z,70.74
2022-09-30T10:36:48.105Z,71.87
2022-09-30T10:37:51.397Z,72.03
2022-09-30T10:38:49.084Z,72.03
2022-09-30T10:39:48.542Z,72.67
2022-09-30T10:40:48.067Z,72.67
2022-09-30T10:41:48.065Z,70.42
2022-09-30T10:42:48.060Z,70.74
2022-09-30T10:43:48.052Z,70.90
2022-09-30T10:44:48.044Z,69.77
2022-09-30T10:46:06.974Z,72.99
2022-09-30T10:46:50.079Z,70.90
2022-09-30T10:47:48.012Z,69.29
2022-09-30T10:48:48.023Z,80.57
2022-09-30T10:49:49.047Z,69.93
2022-09-30T10:50:47.993Z,72.99
2022-09-30T10:51:48.004Z,72.03
2022-09-30T10:52:47.996Z,71.06
2022-09-30T10:53:48.502Z,71.70
2022-09-30T10:54:49.170Z,74.93
2022-09-30T10:55:47.961Z,73.48
2022-09-30T10:56:47.951Z,75.89
2022-09-30T10:57:48.025Z,71.54
2022-09-30T10:58:48.016Z,70.42
2022-09-30T10:59:47.930Z,70.90
2022-09-30T11:00:47.956Z,69.93
2022-09-30T11:01:47.946Z,68.64
2022-09-30T11:02:50.466Z,71.70
2022-09-30T11:03:50.564Z,72.19
2022-09-30T11:04:47.900Z,75.25
2022-09-30T11:05:47.905Z,71.70
2022-09-30T11:06:48.502Z,71.38
2022-09-30T11:07:47.863Z,71.38
2022-09-30T11:08:47.905Z,70.25
2022-09-30T11:09:47.862Z,73.32
2022-09-30T11:10:48.531Z,72.35
2022-09-30T11:11:47.822Z,73.80
2022-09-30T11:12:47.818Z,84.76
2022-09-30T11:13:47.805Z,73.15
2022-09-30T11:14:48.542Z,79.44
2022-09-30T11:15:47.794Z,72.99
2022-09-30T11:16:47.900Z,73.96
2022-09-30T11:17:47.822Z,74.77
2022-09-30T11:18:47.768Z,72.83
2022-09-30T11:19:47.762Z,73.64
2022-09-30T11:20:47.747Z,73.48
2022-09-30T11:21:48.541Z,72.51
2022-09-30T11:22:47.725Z,72.51
2022-09-30T11:23:49.540Z,75.57
2022-09-30T11:24:47.748Z,70.25
2022-09-30T11:25:47.718Z,70.90
2022-09-30T11:26:49.528Z,73.32
2022-09-30T11:27:47.763Z,75.73
2022-09-30T11:28:47.696Z,70.09
2022-09-30T11:29:47.696Z,69.61
2022-09-30T11:30:49.464Z,68.48
2022-09-30T11:31:47.713Z,71.70
2022-09-30T11:32:47.680Z,68.48
2022-09-30T11:33:47.644Z,69.61
2022-09-30T11:34:47.647Z,73.96
2022-09-30T11:35:47.660Z,70.74
2022-09-30T11:36:47.617Z,68.96
2022-09-30T11:37:47.610Z,68.00
2022-09-30T11:38:47.605Z,70.74
2022-09-30T11:39:47.596Z,70.25
2022-09-30T11:40:47.600Z,72.35
2022-09-30T11:41:47.577Z,71.54
2022-09-30T11:42:47.571Z,69.93
2022-09-30T11:43:47.567Z,69.93
2022-09-30T11:44:47.556Z,72.51
2022-09-30T11:45:47.584Z,70.25
2022-09-30T11:46:47.543Z,70.74
2022-09-30T11:47:47.528Z,74.12
2022-09-30T11:48:47.557Z,69.45
2022-09-30T11:49:47.528Z,67.84
2022-09-30T11:50:48.017Z,70.90
2022-09-30T11:51:47.499Z,68.48
2022-09-30T11:52:47.530Z,69.77
2022-09-30T11:53:48.019Z,72.51
2022-09-30T11:54:48.945Z,69.77
2022-09-30T11:55:47.500Z,70.42
2022-09-30T11:56:47.512Z,69.13
2022-09-30T11:57:47.488Z,69.93
2022-09-30T11:58:48.017Z,70.90
2022-09-30T11:59:47.433Z,71.06
2022-09-30T12:00:48.446Z,70.09
2022-09-30T12:01:47.469Z,70.42
2022-09-30T12:02:47.460Z,71.22
2022-09-30T12:03:47.407Z,70.25
2022-09-30T12:04:47.399Z,68.96
2022-09-30T12:05:48.025Z,69.93
2022-09-30T12:06:47.415Z,73.96
2022-09-30T12:07:47.376Z,70.90
2022-09-30T12:08:48.945Z,69.77
2022-09-30T12:09:47.359Z,75.89
2022-09-30T12:10:47.355Z,70.42
2022-09-30T12:11:47.387Z,69.61
2022-09-30T12:12:47.334Z,69.13
2022-09-30T12:13:47.349Z,71.06
2022-09-30T12:14:47.325Z,67.03
2022-09-30T12:15:48.043Z,73.96
2022-09-30T12:16:47.378Z,69.61
2022-09-30T12:17:47.337Z,68.80
2022-09-30T12:18:47.297Z,72.03
2022-09-30T12:19:47.420Z,71.87
2022-09-30T12:20:47.286Z,72.51
2022-09-30T12:21:47.285Z,77.18
2022-09-30T12:22:47.265Z,71.38
2022-09-30T12:23:47.250Z,71.54
2022-09-30T12:24:47.249Z,72.19
2022-09-30T12:25:47.246Z,67.68
2022-09-30T12:26:48.956Z,70.09
2022-09-30T12:28:17.468Z,71.06
2022-09-30T12:28:47.224Z,69.13
2022-09-30T12:29:47.227Z,71.06
2022-09-30T12:30:47.200Z,70.58
2022-09-30T12:31:47.222Z,70.09
2022-09-30T12:32:47.191Z,69.61
2022-09-30T12:33:47.171Z,70.25
2022-09-30T12:34:47.160Z,69.29
2022-09-30T12:35:47.158Z,73.32
2022-09-30T12:36:47.146Z,71.54
2022-09-30T12:37:47.147Z,69.29
2022-09-30T12:38:47.143Z,69.29
2022-09-30T12:39:47.128Z,72.35
2022-09-30T12:40:52.430Z,71.54
2022-09-30T12:41:48.118Z,69.93
2022-09-30T12:42:48.115Z,68.96
2022-09-30T12:43:47.090Z,70.42
2022-09-30T12:44:47.085Z,70.09
2022-09-30T12:45:47.117Z,68.48
2022-09-30T12:46:47.098Z,68.48
2022-09-30T12:47:47.064Z,69.77
2022-09-30T12:48:47.097Z,67.84
2022-09-30T12:49:47.045Z,67.84
2022-09-30T12:50:47.083Z,68.48
2022-09-30T12:51:47.038Z,70.25
2022-09-30T12:52:47.026Z,71.70
2022-09-30T12:53:47.017Z,68.00
2022-09-30T12:54:47.011Z,71.54
2022-09-30T12:55:46.999Z,68.48
2022-09-30T12:56:46.998Z,67.03
2022-09-30T12:57:46.996Z,70.58
2022-09-30T12:58:46.974Z,77.34
2022-09-30T12:59:46.980Z,71.54
2022-09-30T13:01:20.042Z,69.29